sensor_id;sensor_type;location;lat;lon;timestamp;pressure;altitude;pressure_sealevel;temperature
18782;BMP180;9519;51.890;8.970;2023-04-12T00:03:48;98467.00;;;5.10
18782;BMP180;9519;51.890;8.970;2023-04-12T00:08:51;98441.00;;;5.10
18782;BMP180;9519;51.890;8.970;2023-04-12T00:13:55;98435.00;;;5.10
18782;BMP180;9519;51.890;8.970;2023-04-12T00:18:59;98425.00;;;5.10
18782;BMP180;9519;51.890;8.970;2023-04-12T00:24:01;98411.00;;;5.10
18782;BMP180;9519;51.890;8.970;2023-04-12T00:29:04;98401.00;;;5.00
18782;BMP180;9519;51.890;8.970;2023-04-12T00:34:06;98381.00;;;4.90
18782;BMP180;9519;51.890;8.970;2023-04-12T00:39:08;98362.00;;;4.90
18782;BMP180;9519;51.890;8.970;2023-04-12T00:44:12;98357.00;;;4.90
18782;BMP180;9519;51.890;8.970;2023-04-12T00:49:14;98365.00;;;4.90
18782;BMP180;9519;51.890;8.970;2023-04-12T00:54:16;98346.00;;;4.90
18782;BMP180;9519;51.890;8.970;2023-04-12T00:59:21;98336.00;;;4.90
18782;BMP180;9519;51.890;8.970;2023-04-12T01:04:23;98320.00;;;5.00
18782;BMP180;9519;51.890;8.970;2023-04-12T01:09:34;98354.00;;;5.00
18782;BMP180;9519;51.890;8.970;2023-04-12T01:14:48;98349.00;;;5.10
18782;BMP180;9519;51.890;8.970;2023-04-12T01:19:57;98333.00;;;5.20
18782;BMP180;9519;51.890;8.970;2023-04-12T01:25:20;98332.00;;;5.20
18782;BMP180;9519;51.890;8.970;2023-04-12T01:30:28;98355.00;;;5.30
18782;BMP180;9519;51.890;8.970;2023-04-12T01:35:32;98344.00;;;5.40
18782;BMP180;9519;51.890;8.970;2023-04-12T01:40:35;98315.00;;;5.40
18782;BMP180;9519;51.890;8.970;2023-04-12T01:45:41;98302.00;;;5.50
18782;BMP180;9519;51.890;8.970;2023-04-12T01:50:55;98291.00;;;5.60
18782;BMP180;9519;51.890;8.970;2023-04-12T01:56:08;98285.00;;;5.60
18782;BMP180;9519;51.890;8.970;2023-04-12T02:01:12;98260.00;;;5.60
18782;BMP180;9519;51.890;8.970;2023-04-12T02:06:18;98265.00;;;5.70
18782;BMP180;9519;51.890;8.970;2023-04-12T02:11:20;98264.00;;;5.70
18782;BMP180;9519;51.890;8.970;2023-04-12T02:16:24;98261.00;;;5.70
18782;BMP180;9519;51.890;8.970;2023-04-12T02:21:38;98255.00;;;5.70
18782;BMP180;9519;51.890;8.970;2023-04-12T02:26:40;98263.00;;;5.80
18782;BMP180;9519;51.890;8.970;2023-04-12T02:31:44;98251.00;;;5.80
18782;BMP180;9519;51.890;8.970;2023-04-12T02:36:46;98204.00;;;5.80
18782;BMP180;9519;51.890;8.970;2023-04-12T02:41:48;98227.00;;;5.80
18782;BMP180;9519;51.890;8.970;2023-04-12T02:46:52;98218.00;;;5.80
18782;BMP180;9519;51.890;8.970;2023-04-12T02:51:54;98196.00;;;5.80
18782;BMP180;9519;51.890;8.970;2023-04-12T02:56:56;98192.00;;;5.70
18782;BMP180;9519;51.890;8.970;2023-04-12T03:01:59;98195.00;;;5.80
18782;BMP180;9519;51.890;8.970;2023-04-12T03:07:01;98162.00;;;5.80
18782;BMP180;9519;51.890;8.970;2023-04-12T03:12:04;98185.00;;;5.90
18782;BMP180;9519;51.890;8.970;2023-04-12T03:17:08;98174.00;;;5.90
18782;BMP180;9519;51.890;8.970;2023-04-12T03:22:10;98154.00;;;6.00
18782;BMP180;9519;51.890;8.970;2023-04-12T03:27:12;98159.00;;;6.00
18782;BMP180;9519;51.890;8.970;2023-04-12T03:32:16;98124.00;;;6.00
18782;BMP180;9519;51.890;8.970;2023-04-12T03:37:18;98134.00;;;6.10
18782;BMP180;9519;51.890;8.970;2023-04-12T03:42:20;98112.00;;;6.10
18782;BMP180;9519;51.890;8.970;2023-04-12T03:47:24;98115.00;;;6.10
18782;BMP180;9519;51.890;8.970;2023-04-12T03:52:26;98131.00;;;6.20
18782;BMP180;9519;51.890;8.970;2023-04-12T03:57:28;98117.00;;;6.20
18782;BMP180;9519;51.890;8.970;2023-04-12T04:02:31;98106.00;;;6.20
18782;BMP180;9519;51.890;8.970;2023-04-12T04:07:33;98098.00;;;6.30
18782;BMP180;9519;51.890;8.970;2023-04-12T04:12:36;98085.00;;;6.30
18782;BMP180;9519;51.890;8.970;2023-04-12T04:17:39;98074.00;;;6.30
18782;BMP180;9519;51.890;8.970;2023-04-12T04:22:42;98064.00;;;6.30
18782;BMP180;9519;51.890;8.970;2023-04-12T04:27:47;98047.00;;;6.30
18782;BMP180;9519;51.890;8.970;2023-04-12T04:32:52;98038.00;;;6.30
18782;BMP180;9519;51.890;8.970;2023-04-12T04:37:54;98037.00;;;6.30
18782;BMP180;9519;51.890;8.970;2023-04-12T04:42:56;98002.00;;;6.30
18782;BMP180;9519;51.890;8.970;2023-04-12T04:48:00;97996.00;;;6.30
18782;BMP180;9519;51.890;8.970;2023-04-12T04:53:03;97992.00;;;6.20
18782;BMP180;9519;51.890;8.970;2023-04-12T04:58:05;97996.00;;;6.30
18782;BMP180;9519;51.890;8.970;2023-04-12T05:03:08;97965.00;;;6.30
18782;BMP180;9519;51.890;8.970;2023-04-12T05:08:10;97970.00;;;6.30
18782;BMP180;9519;51.890;8.970;2023-04-12T05:13:12;97954.00;;;6.30
18782;BMP180;9519;51.890;8.970;2023-04-12T05:18:16;97964.00;;;6.40
18782;BMP180;9519;51.890;8.970;2023-04-12T05:23:18;97952.00;;;6.40
18782;BMP180;9519;51.890;8.970;2023-04-12T05:28:20;97950.00;;;6.40
18782;BMP180;9519;51.890;8.970;2023-04-12T05:33:26;97940.00;;;6.50
18782;BMP180;9519;51.890;8.970;2023-04-12T05:38:28;97945.00;;;6.60
18782;BMP180;9519;51.890;8.970;2023-04-12T05:43:30;97927.00;;;6.70
18782;BMP180;9519;51.890;8.970;2023-04-12T05:48:35;97929.00;;;6.90
18782;BMP180;9519;51.890;8.970;2023-04-12T05:53:37;97933.00;;;7.00
18782;BMP180;9519;51.890;8.970;2023-04-12T05:58:39;97928.00;;;7.20
18782;BMP180;9519;51.890;8.970;2023-04-12T06:03:42;97915.00;;;7.20
18782;BMP180;9519;51.890;8.970;2023-04-12T06:08:45;97916.00;;;7.30
18782;BMP180;9519;51.890;8.970;2023-04-12T06:13:47;97918.00;;;7.40
18782;BMP180;9519;51.890;8.970;2023-04-12T06:18:50;97893.00;;;7.50
18782;BMP180;9519;51.890;8.970;2023-04-12T06:23:52;97887.00;;;7.50
18782;BMP180;9519;51.890;8.970;2023-04-12T06:28:54;97868.00;;;7.60
18782;BMP180;9519;51.890;8.970;2023-04-12T06:33:58;97864.00;;;7.70
18782;BMP180;9519;51.890;8.970;2023-04-12T06:39:00;97866.00;;;7.70
18782;BMP180;9519;51.890;8.970;2023-04-12T06:44:03;97860.00;;;7.80
18782;BMP180;9519;51.890;8.970;2023-04-12T06:49:07;97839.00;;;7.90
18782;BMP180;9519;51.890;8.970;2023-04-12T06:54:09;97835.00;;;8.00
18782;BMP180;9519;51.890;8.970;2023-04-12T06:59:11;97830.00;;;8.10
18782;BMP180;9519;51.890;8.970;2023-04-12T07:04:14;97825.00;;;8.20
18782;BMP180;9519;51.890;8.970;2023-04-12T07:09:16;97827.00;;;8.20
18782;BMP180;9519;51.890;8.970;2023-04-12T07:14:19;97823.00;;;8.30
18782;BMP180;9519;51.890;8.970;2023-04-12T07:19:22;97809.00;;;8.30
18782;BMP180;9519;51.890;8.970;2023-04-12T07:24:24;97798.00;;;8.20
18782;BMP180;9519;51.890;8.970;2023-04-12T07:29:26;97777.00;;;8.10
18782;BMP180;9519;51.890;8.970;2023-04-12T07:34:30;97761.00;;;8.00
18782;BMP180;9519;51.890;8.970;2023-04-12T07:39:32;97765.00;;;7.90
18782;BMP180;9519;51.890;8.970;2023-04-12T07:44:35;97778.00;;;7.80
18782;BMP180;9519;51.890;8.970;2023-04-12T07:49:39;97770.00;;;7.80
18782;BMP180;9519;51.890;8.970;2023-04-12T07:54:42;97749.00;;;7.70
18782;BMP180;9519;51.890;8.970;2023-04-12T07:59:44;97752.00;;;7.70
18782;BMP180;9519;51.890;8.970;2023-04-12T08:04:47;97735.00;;;7.60
18782;BMP180;9519;51.890;8.970;2023-04-12T08:09:49;97732.00;;;7.50
18782;BMP180;9519;51.890;8.970;2023-04-12T08:14:51;97721.00;;;7.40
18782;BMP180;9519;51.890;8.970;2023-04-12T08:19:55;97715.00;;;7.40
18782;BMP180;9519;51.890;8.970;2023-04-12T08:24:57;97720.00;;;7.40
18782;BMP180;9519;51.890;8.970;2023-04-12T08:29:59;97716.00;;;7.40
18782;BMP180;9519;51.890;8.970;2023-04-12T08:35:03;97708.00;;;7.40
18782;BMP180;9519;51.890;8.970;2023-04-12T08:40:07;97701.00;;;7.40
18782;BMP180;9519;51.890;8.970;2023-04-12T08:45:11;97702.00;;;7.50
18782;BMP180;9519;51.890;8.970;2023-04-12T08:50:15;97692.00;;;7.60
18782;BMP180;9519;51.890;8.970;2023-04-12T08:55:17;97683.00;;;7.70
18782;BMP180;9519;51.890;8.970;2023-04-12T09:00:19;97675.00;;;7.80
18782;BMP180;9519;51.890;8.970;2023-04-12T09:05:28;97668.00;;;7.90
18782;BMP180;9519;51.890;8.970;2023-04-12T09:10:32;97675.00;;;8.00
18782;BMP180;9519;51.890;8.970;2023-04-12T09:15:47;97679.00;;;8.10
18782;BMP180;9519;51.890;8.970;2023-04-12T09:21:06;97644.00;;;8.10
18782;BMP180;9519;51.890;8.970;2023-04-12T09:26:25;97637.00;;;8.10
18782;BMP180;9519;51.890;8.970;2023-04-12T09:31:28;97627.00;;;8.20
18782;BMP180;9519;51.890;8.970;2023-04-12T09:36:38;97635.00;;;8.30
18782;BMP180;9519;51.890;8.970;2023-04-12T09:41:40;97619.00;;;8.30
18782;BMP180;9519;51.890;8.970;2023-04-12T09:46:50;97630.00;;;8.40
18782;BMP180;9519;51.890;8.970;2023-04-12T09:51:53;97623.00;;;8.50
18782;BMP180;9519;51.890;8.970;2023-04-12T09:56:56;97615.00;;;8.60
18782;BMP180;9519;51.890;8.970;2023-04-12T10:01:58;97617.00;;;8.60
18782;BMP180;9519;51.890;8.970;2023-04-12T10:07:03;97613.00;;;8.80
18782;BMP180;9519;51.890;8.970;2023-04-12T10:12:07;97583.00;;;9.00
18782;BMP180;9519;51.890;8.970;2023-04-12T10:17:10;97589.00;;;9.10
18782;BMP180;9519;51.890;8.970;2023-04-12T10:22:16;97583.00;;;9.20
18782;BMP180;9519;51.890;8.970;2023-04-12T10:27:26;97596.00;;;9.40
18782;BMP180;9519;51.890;8.970;2023-04-12T10:32:28;97582.00;;;9.60
18782;BMP180;9519;51.890;8.970;2023-04-12T10:37:59;97586.00;;;9.70
18782;BMP180;9519;51.890;8.970;2023-04-12T10:43:24;97582.00;;;9.60
18782;BMP180;9519;51.890;8.970;2023-04-12T10:48:31;97568.00;;;9.60
18782;BMP180;9519;51.890;8.970;2023-04-12T10:53:35;97558.00;;;9.70
18782;BMP180;9519;51.890;8.970;2023-04-12T10:59:00;97569.00;;;9.60
18782;BMP180;9519;51.890;8.970;2023-04-12T11:04:14;97568.00;;;9.70
18782;BMP180;9519;51.890;8.970;2023-04-12T11:09:20;97576.00;;;9.80
18782;BMP180;9519;51.890;8.970;2023-04-12T11:14:28;97565.00;;;9.80
18782;BMP180;9519;51.890;8.970;2023-04-12T11:19:31;97572.00;;;9.90
18782;BMP180;9519;51.890;8.970;2023-04-12T11:24:37;97569.00;;;10.10
18782;BMP180;9519;51.890;8.970;2023-04-12T11:29:39;97569.00;;;10.20
18782;BMP180;9519;51.890;8.970;2023-04-12T11:34:45;97560.00;;;10.30
18782;BMP180;9519;51.890;8.970;2023-04-12T11:39:52;97546.00;;;10.40
18782;BMP180;9519;51.890;8.970;2023-04-12T11:44:54;97538.00;;;10.40
18782;BMP180;9519;51.890;8.970;2023-04-12T11:50:00;97531.00;;;10.40
18782;BMP180;9519;51.890;8.970;2023-04-12T11:55:05;97526.00;;;10.40
18782;BMP180;9519;51.890;8.970;2023-04-12T12:00:09;97518.00;;;10.30
18782;BMP180;9519;51.890;8.970;2023-04-12T12:05:12;97513.00;;;10.30
18782;BMP180;9519;51.890;8.970;2023-04-12T12:10:17;97515.00;;;10.30
18782;BMP180;9519;51.890;8.970;2023-04-12T12:15:19;97520.00;;;10.30
18782;BMP180;9519;51.890;8.970;2023-04-12T12:20:21;97511.00;;;10.40
18782;BMP180;9519;51.890;8.970;2023-04-12T12:25:28;97509.00;;;10.40
18782;BMP180;9519;51.890;8.970;2023-04-12T12:30:30;97505.00;;;10.40
18782;BMP180;9519;51.890;8.970;2023-04-12T12:35:34;97514.00;;;10.50
18782;BMP180;9519;51.890;8.970;2023-04-12T12:40:38;97509.00;;;10.50
18782;BMP180;9519;51.890;8.970;2023-04-12T12:45:40;97511.00;;;10.60
18782;BMP180;9519;51.890;8.970;2023-04-12T12:50:42;97510.00;;;10.70
18782;BMP180;9519;51.890;8.970;2023-04-12T12:55:46;97500.00;;;10.80
18782;BMP180;9519;51.890;8.970;2023-04-12T13:00:48;97500.00;;;10.80
18782;BMP180;9519;51.890;8.970;2023-04-12T13:05:50;97486.00;;;10.80
18782;BMP180;9519;51.890;8.970;2023-04-12T13:10:54;97487.00;;;10.80
18782;BMP180;9519;51.890;8.970;2023-04-12T13:15:56;97496.00;;;10.90
18782;BMP180;9519;51.890;8.970;2023-04-12T13:20:58;97489.00;;;11.00
18782;BMP180;9519;51.890;8.970;2023-04-12T13:26:01;97480.00;;;11.00
18782;BMP180;9519;51.890;8.970;2023-04-12T13:31:04;97486.00;;;11.00
18782;BMP180;9519;51.890;8.970;2023-04-12T13:36:07;97484.00;;;11.00
18782;BMP180;9519;51.890;8.970;2023-04-12T13:41:10;97460.00;;;11.20
18782;BMP180;9519;51.890;8.970;2023-04-12T13:46:12;97445.00;;;11.30
18782;BMP180;9519;51.890;8.970;2023-04-12T13:51:14;97451.00;;;11.60
18782;BMP180;9519;51.890;8.970;2023-04-12T13:56:19;97451.00;;;11.80
18782;BMP180;9519;51.890;8.970;2023-04-12T14:01:21;97427.00;;;12.00
18782;BMP180;9519;51.890;8.970;2023-04-12T14:06:24;97430.00;;;12.00
18782;BMP180;9519;51.890;8.970;2023-04-12T14:11:28;97431.00;;;12.00
18782;BMP180;9519;51.890;8.970;2023-04-12T14:16:30;97426.00;;;11.90
18782;BMP180;9519;51.890;8.970;2023-04-12T14:21:33;97429.00;;;11.90
18782;BMP180;9519;51.890;8.970;2023-04-12T14:26:37;97423.00;;;11.80
18782;BMP180;9519;51.890;8.970;2023-04-12T14:31:40;97438.00;;;11.70
18782;BMP180;9519;51.890;8.970;2023-04-12T14:36:42;97465.00;;;11.60
18782;BMP180;9519;51.890;8.970;2023-04-12T14:41:45;97461.00;;;11.20
18782;BMP180;9519;51.890;8.970;2023-04-12T14:46:48;97443.00;;;10.80
18782;BMP180;9519;51.890;8.970;2023-04-12T14:51:50;97454.00;;;10.60
18782;BMP180;9519;51.890;8.970;2023-04-12T14:56:53;97455.00;;;10.50
18782;BMP180;9519;51.890;8.970;2023-04-12T15:01:56;97471.00;;;10.40
18782;BMP180;9519;51.890;8.970;2023-04-12T15:06:59;97461.00;;;10.40
18782;BMP180;9519;51.890;8.970;2023-04-12T15:12:02;97448.00;;;10.80
18782;BMP180;9519;51.890;8.970;2023-04-12T15:17:04;97450.00;;;11.10
18782;BMP180;9519;51.890;8.970;2023-04-12T15:22:09;97605.00;;;11.60
18782;BMP180;9519;51.890;8.970;2023-04-12T15:27:13;97446.00;;;12.70
18782;BMP180;9519;51.890;8.970;2023-04-12T15:32:15;97448.00;;;13.30
18782;BMP180;9519;51.890;8.970;2023-04-12T15:37:17;97465.00;;;13.00
18782;BMP180;9519;51.890;8.970;2023-04-12T15:42:21;97458.00;;;12.60
18782;BMP180;9519;51.890;8.970;2023-04-12T15:47:23;97450.00;;;12.20
18782;BMP180;9519;51.890;8.970;2023-04-12T15:52:25;97457.00;;;11.80
18782;BMP180;9519;51.890;8.970;2023-04-12T15:57:29;97470.00;;;11.60
18782;BMP180;9519;51.890;8.970;2023-04-12T16:02:31;97491.00;;;11.20
18782;BMP180;9519;51.890;8.970;2023-04-12T16:07:33;97475.00;;;10.70
18782;BMP180;9519;51.890;8.970;2023-04-12T16:12:36;97485.00;;;10.30
18782;BMP180;9519;51.890;8.970;2023-04-12T16:17:39;97485.00;;;9.90
18782;BMP180;9519;51.890;8.970;2023-04-12T16:22:41;97485.00;;;9.70
18782;BMP180;9519;51.890;8.970;2023-04-12T16:27:44;97478.00;;;9.60
18782;BMP180;9519;51.890;8.970;2023-04-12T16:32:47;97473.00;;;9.60
18782;BMP180;9519;51.890;8.970;2023-04-12T16:37:50;97485.00;;;9.60
18782;BMP180;9519;51.890;8.970;2023-04-12T16:42:53;97471.00;;;9.60
18782;BMP180;9519;51.890;8.970;2023-04-12T16:47:55;97478.00;;;9.50
18782;BMP180;9519;51.890;8.970;2023-04-12T16:53:00;97455.00;;;9.50
18782;BMP180;9519;51.890;8.970;2023-04-12T16:58:04;97443.00;;;9.50
18782;BMP180;9519;51.890;8.970;2023-04-12T17:03:06;97448.00;;;9.40
18782;BMP180;9519;51.890;8.970;2023-04-12T17:08:09;97463.00;;;9.50
18782;BMP180;9519;51.890;8.970;2023-04-12T17:13:15;97505.00;;;9.40
18782;BMP180;9519;51.890;8.970;2023-04-12T17:18:17;97494.00;;;8.90
18782;BMP180;9519;51.890;8.970;2023-04-12T17:23:21;97476.00;;;8.20
18782;BMP180;9519;51.890;8.970;2023-04-12T17:28:25;97492.00;;;7.80
18782;BMP180;9519;51.890;8.970;2023-04-12T17:33:27;97515.00;;;7.60
18782;BMP180;9519;51.890;8.970;2023-04-12T17:38:29;97533.00;;;7.50
18782;BMP180;9519;51.890;8.970;2023-04-12T17:43:33;97528.00;;;7.40
18782;BMP180;9519;51.890;8.970;2023-04-12T17:48:35;97539.00;;;7.30
18782;BMP180;9519;51.890;8.970;2023-04-12T17:53:37;97554.00;;;7.20
18782;BMP180;9519;51.890;8.970;2023-04-12T17:58:42;97543.00;;;7.10
18782;BMP180;9519;51.890;8.970;2023-04-12T18:03:44;97556.00;;;6.90
18782;BMP180;9519;51.890;8.970;2023-04-12T18:08:47;97585.00;;;6.80
18782;BMP180;9519;51.890;8.970;2023-04-12T18:13:51;97591.00;;;6.80
18782;BMP180;9519;51.890;8.970;2023-04-12T18:18:53;97594.00;;;6.80
18782;BMP180;9519;51.890;8.970;2023-04-12T18:23:55;97601.00;;;6.80
18782;BMP180;9519;51.890;8.970;2023-04-12T18:28:59;97581.00;;;6.80
18782;BMP180;9519;51.890;8.970;2023-04-12T18:34:01;97539.00;;;6.60
18782;BMP180;9519;51.890;8.970;2023-04-12T18:39:06;97567.00;;;6.50
18782;BMP180;9519;51.890;8.970;2023-04-12T18:44:09;97547.00;;;6.50
18782;BMP180;9519;51.890;8.970;2023-04-12T18:49:12;97560.00;;;6.40
18782;BMP180;9519;51.890;8.970;2023-04-12T18:54:15;97567.00;;;6.30
18782;BMP180;9519;51.890;8.970;2023-04-12T18:59:18;97567.00;;;6.30
18782;BMP180;9519;51.890;8.970;2023-04-12T19:04:21;97599.00;;;6.40
18782;BMP180;9519;51.890;8.970;2023-04-12T19:09:23;97598.00;;;6.30
18782;BMP180;9519;51.890;8.970;2023-04-12T19:14:26;97619.00;;;6.40
18782;BMP180;9519;51.890;8.970;2023-04-12T19:19:30;97633.00;;;6.30
18782;BMP180;9519;51.890;8.970;2023-04-12T19:24:32;97629.00;;;6.30
18782;BMP180;9519;51.890;8.970;2023-04-12T19:29:35;97613.00;;;6.20
18782;BMP180;9519;51.890;8.970;2023-04-12T19:34:37;97577.00;;;6.20
18782;BMP180;9519;51.890;8.970;2023-04-12T19:39:39;97571.00;;;6.10
18782;BMP180;9519;51.890;8.970;2023-04-12T19:44:43;97621.00;;;6.10
18782;BMP180;9519;51.890;8.970;2023-04-12T19:49:45;97622.00;;;6.10
18782;BMP180;9519;51.890;8.970;2023-04-12T19:54:48;97610.00;;;6.20
18782;BMP180;9519;51.890;8.970;2023-04-12T19:59:53;97616.00;;;6.20
18782;BMP180;9519;51.890;8.970;2023-04-12T20:04:56;97625.00;;;6.30
18782;BMP180;9519;51.890;8.970;2023-04-12T20:09:58;97628.00;;;6.30
18782;BMP180;9519;51.890;8.970;2023-04-12T20:15:02;97651.00;;;6.40
18782;BMP180;9519;51.890;8.970;2023-04-12T20:20:06;97661.00;;;6.40
18782;BMP180;9519;51.890;8.970;2023-04-12T20:25:10;97654.00;;;6.40
18782;BMP180;9519;51.890;8.970;2023-04-12T20:30:15;97644.00;;;6.40
18782;BMP180;9519;51.890;8.970;2023-04-12T20:35:17;97632.00;;;6.30
18782;BMP180;9519;51.890;8.970;2023-04-12T20:40:20;97642.00;;;6.30
18782;BMP180;9519;51.890;8.970;2023-04-12T20:45:28;97643.00;;;6.30
18782;BMP180;9519;51.890;8.970;2023-04-12T20:50:30;97648.00;;;6.30
18782;BMP180;9519;51.890;8.970;2023-04-12T20:55:32;97634.00;;;6.30
18782;BMP180;9519;51.890;8.970;2023-04-12T21:00:36;97629.00;;;6.30
18782;BMP180;9519;51.890;8.970;2023-04-12T21:05:38;97629.00;;;6.20
18782;BMP180;9519;51.890;8.970;2023-04-12T21:10:40;97635.00;;;6.20
18782;BMP180;9519;51.890;8.970;2023-04-12T21:15:46;97625.00;;;6.10
18782;BMP180;9519;51.890;8.970;2023-04-12T21:20:50;97630.00;;;6.10
18782;BMP180;9519;51.890;8.970;2023-04-12T21:25:52;97612.00;;;6.00
18782;BMP180;9519;51.890;8.970;2023-04-12T21:30:56;97588.00;;;5.90
18782;BMP180;9519;51.890;8.970;2023-04-12T21:35:58;97615.00;;;5.90
18782;BMP180;9519;51.890;8.970;2023-04-12T21:41:04;97604.00;;;5.80
18782;BMP180;9519;51.890;8.970;2023-04-12T21:46:08;97605.00;;;5.70
18782;BMP180;9519;51.890;8.970;2023-04-12T21:51:11;97602.00;;;5.60
18782;BMP180;9519;51.890;8.970;2023-04-12T21:56:13;97597.00;;;5.60
18782;BMP180;9519;51.890;8.970;2023-04-12T22:01:16;97583.00;;;5.50
18782;BMP180;9519;51.890;8.970;2023-04-12T22:06:19;97582.00;;;5.40
18782;BMP180;9519;51.890;8.970;2023-04-12T22:11:21;97587.00;;;5.30
18782;BMP180;9519;51.890;8.970;2023-04-12T22:16:24;97542.00;;;5.20
18782;BMP180;9519;51.890;8.970;2023-04-12T22:21:27;97583.00;;;5.20
18782;BMP180;9519;51.890;8.970;2023-04-12T22:26:30;97580.00;;;5.10
18782;BMP180;9519;51.890;8.970;2023-04-12T22:31:34;97578.00;;;5.10
18782;BMP180;9519;51.890;8.970;2023-04-12T22:36:38;97592.00;;;5.10
18782;BMP180;9519;51.890;8.970;2023-04-12T22:41:41;97586.00;;;5.00
18782;BMP180;9519;51.890;8.970;2023-04-12T22:46:53;97599.00;;;5.00
18782;BMP180;9519;51.890;8.970;2023-04-12T22:51:57;97563.00;;;4.90
18782;BMP180;9519;51.890;8.970;2023-04-12T22:56:59;97560.00;;;4.80
18782;BMP180;9519;51.890;8.970;2023-04-12T23:02:03;97532.00;;;4.80
18782;BMP180;9519;51.890;8.970;2023-04-12T23:07:06;97547.00;;;4.70
18782;BMP180;9519;51.890;8.970;2023-04-12T23:12:08;97533.00;;;4.70
18782;BMP180;9519;51.890;8.970;2023-04-12T23:17:11;97542.00;;;4.70
18782;BMP180;9519;51.890;8.970;2023-04-12T23:22:13;97534.00;;;4.60
18782;BMP180;9519;51.890;8.970;2023-04-12T23:27:22;97523.00;;;4.50
18782;BMP180;9519;51.890;8.970;2023-04-12T23:32:25;97511.00;;;4.50
18782;BMP180;9519;51.890;8.970;2023-04-12T23:37:27;97496.00;;;4.40
18782;BMP180;9519;51.890;8.970;2023-04-12T23:42:32;97501.00;;;4.40
18782;BMP180;9519;51.890;8.970;2023-04-12T23:47:35;97483.00;;;4.40
18782;BMP180;9519;51.890;8.970;2023-04-12T23:52:37;97491.00;;;4.40
18782;BMP180;9519;51.890;8.970;2023-04-12T23:57:39;97478.00;;;4.40
